Ammon, Idaho
Current Conditions -  °F | °C
As of 12:53 AM on Saturday 29 Nov 2014 (Local Time) from KIDA Reporting Station
Broken Clouds Broken Clouds  
Wind Chill: 40°   Ceiling: 11000
Heat Index: 48°   Visibility: 8mi
Dew Point: 18°   Wind: 23mph
Humidity: 30%   Direction: 210°SSW
Pressure: 29.62"   Gusts: 30mph
Location:  43.4284°N, 111.925°W
Report Text: KIDA 290753Z AUTO 21020G26KT 8SM BKN110 09/M08 A2962 RMK AO2 PK WND 21028/0739 SLP012 T00891078
Loading
Personal Weather Stations






























Interactive Weather Map New forecast layout! Learn more

10-Day Weather Forecast

Advertisements
Track Severe Weather on mobile